Time;durP1;ratioP1;P1;durP2;ratioP2;P2;SDS_P1;SDS_P2;PMS_P1;PMS_P2;Temp;Humidity;BMP_temperature;BMP_pressure;BME280_temperature;BME280_humidity;BME280_pressure;Samples;Min_cycle;Max_cycle;Signal;HPM_P1;HPM_P2
2021/05/19 00:00:48;;;;;;;17.67;11.82;;;6.70;99.90;;;;;;4964984;28;20629;-72
2021/05/19 00:03:14;;;;;;;12.23;10.15;;;6.80;99.90;;;;;;4966703;28;20023;-72
2021/05/19 00:05:40;;;;;;;15.27;11.13;;;6.70;99.90;;;;;;4965966;28;20038;-72
2021/05/19 00:08:09;;;;;;;17.05;10.10;;;6.60;99.90;;;;;;4965730;28;20540;-72
2021/05/19 00:10:38;;;;;;;20.42;11.45;;;6.50;99.90;;;;;;4963895;28;20171;-72
2021/05/19 00:13:05;;;;;;;16.23;11.93;;;6.50;99.90;;;;;;4965978;28;20030;-72
2021/05/19 00:15:31;;;;;;;13.68;10.27;;;6.50;99.90;;;;;;4966674;28;20058;-72
2021/05/19 00:18:01;;;;;;;16.35;11.15;;;6.50;99.90;;;;;;4965395;28;20101;-71
2021/05/19 00:20:26;;;;;;;;;;;6.40;99.90;;;;;;4969773;28;20035;-72
2021/05/19 00:22:52;;;;;;;18.33;11.85;;;6.40;99.90;;;;;;4966883;28;19918;-71
2021/05/19 00:25:18;;;;;;;18.90;11.80;;;6.40;99.90;;;;;;4968460;28;20039;-72
2021/05/19 00:27:44;;;;;;;17.45;12.90;;;6.40;99.90;;;;;;4969136;28;20034;-72
2021/05/19 00:30:15;;;;;;;19.23;13.77;;;6.30;99.90;;;;;;4969532;28;20035;-72
2021/05/19 00:32:42;;;;;;;16.38;12.48;;;6.30;99.90;;;;;;4968304;28;20112;-71
2021/05/19 00:35:08;;;;;;;19.23;13.30;;;6.30;99.90;;;;;;4969390;28;20499;-72
2021/05/19 00:37:34;;;;;;;19.73;13.38;;;6.30;99.90;;;;;;4965820;28;20766;-72
2021/05/19 00:40:00;;;;;;;14.25;10.23;;;6.30;99.90;;;;;;4968914;28;20026;-72
2021/05/19 00:42:26;;;;;;;16.83;12.52;;;6.20;99.90;;;;;;4968606;28;20158;-71
2021/05/19 00:44:52;;;;;;;14.85;10.63;;;6.30;99.90;;;;;;4968252;28;20126;-71
2021/05/19 00:47:38;;;;;;;18.15;12.32;;;6.20;99.90;;;;;;4969147;28;20031;-71
2021/05/19 00:50:11;;;;;;;15.50;11.35;;;6.20;99.90;;;;;;4968799;28;20116;-71
2021/05/19 00:52:37;;;;;;;17.27;11.05;;;6.20;99.90;;;;;;4968245;28;20594;-72
2021/05/19 00:55:04;;;;;;;11.93;9.73;;;6.20;99.90;;;;;;4967744;28;20034;-70
2021/05/19 00:57:30;;;;;;;17.17;11.50;;;6.10;99.90;;;;;;4969395;28;20546;-72
2021/05/19 00:59:58;;;;;;;15.50;11.85;;;6.10;99.90;;;;;;4968596;28;20049;-71
2021/05/19 01:02:24;;;;;;;15.85;11.80;;;6.10;99.90;;;;;;4968097;28;20042;-72
2021/05/19 01:04:50;;;;;;;15.75;11.48;;;6.10;99.90;;;;;;4969964;28;20045;-71
2021/05/19 01:07:27;;;;;;;15.55;11.95;;;6.20;99.90;;;;;;4969080;28;20113;-72
2021/05/19 01:09:54;;;;;;;16.08;12.15;;;6.20;99.90;;;;;;4974969;28;20035;-72
2021/05/19 01:12:22;;;;;;;18.17;12.57;;;6.30;99.90;;;;;;4968800;28;20076;-71
2021/05/19 01:14:50;;;;;;;13.95;10.60;;;6.30;99.90;;;;;;4968467;28;20061;-72
2021/05/19 01:17:16;;;;;;;14.10;11.57;;;6.30;99.90;;;;;;4970040;28;20041;-72
2021/05/19 01:19:46;;;;;;;14.85;11.52;;;6.30;99.90;;;;;;4969074;28;20050;-72
2021/05/19 01:22:13;;;;;;;16.52;12.05;;;6.40;99.90;;;;;;4967708;28;20141;-72
2021/05/19 01:24:40;;;;;;;15.82;12.13;;;6.40;99.90;;;;;;4967346;28;20137;-72
2021/05/19 01:27:07;;;;;;;15.80;12.13;;;6.40;99.90;;;;;;4966267;28;20049;-72
2021/05/19 01:29:34;;;;;;;20.55;13.52;;;6.50;99.90;;;;;;4968215;28;20533;-72
2021/05/19 01:32:00;;;;;;;19.20;12.98;;;6.50;99.90;;;;;;4969374;28;20038;-72
2021/05/19 01:34:26;;;;;;;19.40;13.35;;;6.40;99.90;;;;;;4964373;28;20034;-72
2021/05/19 01:36:52;;;;;;;18.50;13.00;;;6.30;99.90;;;;;;4968522;28;20045;-72
2021/05/19 01:39:18;;;;;;;16.95;11.45;;;6.30;99.90;;;;;;4967630;28;20027;-72
2021/05/19 01:41:46;;;;;;;16.45;12.35;;;6.40;99.90;;;;;;4968577;28;20137;-72
2021/05/19 01:44:21;;;;;;;17.23;11.45;;;6.40;99.90;;;;;;4966518;28;20023;-72
2021/05/19 01:46:47;;;;;;;17.25;12.18;;;6.20;99.90;;;;;;4969004;28;20034;-72
2021/05/19 01:49:14;;;;;;;18.98;12.85;;;6.30;99.90;;;;;;4966761;28;20034;-72
2021/05/19 01:51:40;;;;;;;17.92;12.25;;;6.30;99.90;;;;;;4963839;28;20034;-72
2021/05/19 01:54:08;;;;;;;17.17;12.20;;;6.20;99.90;;;;;;4966552;28;20026;-72
2021/05/19 01:56:39;;;;;;;16.63;12.65;;;6.20;99.90;;;;;;4967866;28;20030;-72
2021/05/19 01:59:06;;;;;;;14.63;10.60;;;6.10;99.90;;;;;;4967349;28;20160;-72
2021/05/19 02:01:33;;;;;;;15.55;10.55;;;6.00;99.90;;;;;;4967981;28;20035;-72
2021/05/19 02:04:10;;;;;;;16.55;11.80;;;5.90;99.90;;;;;;4966829;28;20572;-72
2021/05/19 02:06:42;;;;;;;15.27;11.27;;;6.00;99.90;;;;;;4968441;28;20045;-71
2021/05/19 02:09:08;;;;;;;15.10;11.18;;;5.90;99.90;;;;;;4966400;28;20078;-72
2021/05/19 02:11:34;;;;;;;14.70;11.23;;;5.90;99.90;;;;;;4968118;28;20034;-72
2021/05/19 02:14:00;;;;;;;15.00;10.63;;;5.80;99.90;;;;;;4966868;28;20022;-72
2021/05/19 02:16:26;;;;;;;16.50;10.45;;;5.80;99.90;;;;;;4967955;28;20047;-72
2021/05/19 02:18:52;;;;;;;17.70;10.63;;;5.70;99.90;;;;;;4966820;28;20780;-72
2021/05/19 02:21:18;;;;;;;14.70;10.70;;;5.70;99.90;;;;;;4966449;28;20086;-72
2021/05/19 02:23:43;;;;;;;16.70;10.38;;;5.60;99.90;;;;;;4965582;28;20639;-71
2021/05/19 02:26:09;;;;;;;14.27;10.55;;;5.60;99.90;;;;;;4965352;28;20033;-72
2021/05/19 02:28:35;;;;;;;14.27;10.43;;;5.50;99.90;;;;;;4968595;28;20137;-71
2021/05/19 02:31:01;;;;;;;13.45;9.75;;;5.50;99.90;;;;;;4965236;28;20638;-72
2021/05/19 02:33:27;;;;;;;14.98;11.07;;;5.40;99.90;;;;;;4967226;28;20026;-72
2021/05/19 02:35:53;;;;;;;12.98;9.30;;;5.40;99.90;;;;;;4972460;28;20433;-71
2021/05/19 02:38:19;;;;;;;12.23;9.45;;;5.40;99.90;;;;;;4967863;28;20564;-72
2021/05/19 02:40:46;;;;;;;13.52;9.40;;;5.40;99.90;;;;;;4966831;28;20539;-72
2021/05/19 02:43:11;;;;;;;13.98;10.25;;;5.30;99.90;;;;;;4967006;28;20503;-72
2021/05/19 02:45:37;;;;;;;13.20;9.85;;;5.30;99.90;;;;;;4965976;28;20073;-72
2021/05/19 02:48:04;;;;;;;12.50;9.15;;;5.30;99.90;;;;;;4966233;28;20434;-72
2021/05/19 02:50:29;;;;;;;14.32;9.40;;;5.20;99.90;;;;;;4967687;28;20041;-72
2021/05/19 02:52:55;;;;;;;12.18;9.20;;;5.20;99.90;;;;;;4966250;28;20508;-72
2021/05/19 02:55:21;;;;;;;14.48;9.73;;;5.20;99.90;;;;;;4968511;28;20081;-71
2021/05/19 02:57:47;;;;;;;12.75;9.00;;;5.10;99.90;;;;;;4963353;28;20064;-72
2021/05/19 03:00:13;;;;;;;14.02;9.95;;;5.10;99.90;;;;;;4964758;28;20070;-72
2021/05/19 03:02:40;;;;;;;13.80;10.05;;;5.10;99.90;;;;;;4965393;28;20022;-72
2021/05/19 03:05:06;;;;;;;14.60;10.52;;;5.10;99.90;;;;;;4966514;28;20093;-72
2021/05/19 03:07:33;;;;;;;13.68;9.20;;;5.10;99.90;;;;;;4966906;28;20042;-71
2021/05/19 03:09:58;;;;;;;12.60;10.05;;;5.10;99.90;;;;;;4966546;28;20076;-71
2021/05/19 03:12:24;;;;;;;12.63;9.98;;;5.00;99.90;;;;;;4964145;28;20551;-72
2021/05/19 03:14:50;;;;;;;13.68;10.20;;;5.00;99.90;;;;;;4967094;28;20466;-71
2021/05/19 03:17:16;;;;;;;12.68;9.85;;;5.20;99.90;;;;;;4966558;28;20030;-71
2021/05/19 03:19:42;;;;;;;15.32;11.32;;;5.30;99.90;;;;;;4966412;28;20030;-71
2021/05/19 03:22:08;;;;;;;17.88;11.82;;;5.40;99.90;;;;;;4963331;28;20039;-71
2021/05/19 03:24:34;;;;;;;14.43;11.15;;;5.50;99.90;;;;;;4965559;28;20525;-71
2021/05/19 03:27:00;;;;;;;15.07;12.23;;;5.40;99.90;;;;;;4964621;28;20048;-72
2021/05/19 03:29:25;;;;;;;16.55;12.77;;;5.60;99.90;;;;;;4964551;28;20037;-71
2021/05/19 03:31:51;;;;;;;21.48;14.48;;;5.60;99.90;;;;;;4966775;28;20193;-72
2021/05/19 03:34:17;;;;;;;20.85;14.80;;;5.70;99.90;;;;;;4965527;28;20541;-73
2021/05/19 03:36:43;;;;;;;20.63;15.70;;;5.80;99.90;;;;;;4965589;28;20039;-72
2021/05/19 03:39:11;;;;;;;20.73;15.38;;;5.90;99.90;;;;;;4963539;28;20022;-72
2021/05/19 03:41:37;;;;;;;21.75;17.27;;;6.00;99.90;;;;;;4965739;28;20045;-72
2021/05/19 03:44:05;;;;;;;22.70;16.50;;;6.10;99.90;;;;;;4967593;28;20027;-72
2021/05/19 03:46:31;;;;;;;22.42;17.85;;;6.20;99.90;;;;;;4964781;28;20038;-72
2021/05/19 03:48:58;;;;;;;21.83;16.38;;;6.40;99.90;;;;;;4966006;28;20031;-72
2021/05/19 03:51:24;;;;;;;22.20;16.15;;;6.50;99.90;;;;;;4965566;28;20045;-72
2021/05/19 03:53:51;;;;;;;21.48;16.70;;;6.50;99.90;;;;;;4968172;28;20037;-72
2021/05/19 03:56:18;;;;;;;23.23;16.42;;;6.60;99.90;;;;;;4982951;28;20436;-72
2021/05/19 03:58:45;;;;;;;22.58;16.90;;;6.60;99.90;;;;;;4967832;28;20045;-72
2021/05/19 04:01:11;;;;;;;22.83;18.15;;;6.70;99.90;;;;;;4966304;28;20053;-72
2021/05/19 04:03:37;;;;;;;22.55;15.15;;;6.80;99.90;;;;;;4968577;28;20034;-72
2021/05/19 04:06:03;;;;;;;18.60;15.43;;;6.80;99.90;;;;;;4967343;28;20514;-72
2021/05/19 04:08:37;;;;;;;20.98;14.95;;;6.90;99.90;;;;;;4966148;28;20031;-76
2021/05/19 04:11:04;;;;;;;22.08;17.80;;;6.90;99.90;;;;;;4969243;28;20039;-71
2021/05/19 04:13:30;;;;;;;20.90;17.08;;;7.00;99.90;;;;;;4968250;28;20121;-72
2021/05/19 04:15:56;;;;;;;23.63;16.38;;;7.20;99.90;;;;;;4967629;28;20061;-71
2021/05/19 04:18:22;;;;;;;25.08;18.17;;;7.30;99.90;;;;;;4969276;28;20070;-72
2021/05/19 04:20:49;;;;;;;25.02;18.25;;;7.40;99.90;;;;;;4969972;28;20152;-72
2021/05/19 04:23:15;;;;;;;23.60;18.23;;;7.50;99.90;;;;;;4967743;28;20093;-71
2021/05/19 04:25:41;;;;;;;23.40;18.67;;;7.50;99.90;;;;;;4968969;28;20114;-72
2021/05/19 04:28:08;;;;;;;21.45;17.63;;;7.60;99.90;;;;;;4968317;28;20042;-72
2021/05/19 04:30:34;;;;;;;29.10;18.83;;;7.80;99.90;;;;;;4966256;28;20036;-71
2021/05/19 04:33:01;;;;;;;19.75;17.33;;;7.80;99.90;;;;;;4967665;28;20053;-72
2021/05/19 04:35:26;;;;;;;19.73;17.48;;;7.80;99.90;;;;;;4967756;28;20405;-72
2021/05/19 04:37:53;;;;;;;18.20;16.30;;;7.80;99.90;;;;;;4970113;28;20034;-72
2021/05/19 04:40:18;;;;;;;19.15;16.17;;;7.80;99.90;;;;;;4968941;28;20026;-72
2021/05/19 04:42:44;;;;;;;21.23;16.25;;;7.80;99.90;;;;;;4967170;28;20453;-72
2021/05/19 04:45:11;;;;;;;19.00;16.08;;;7.80;99.90;;;;;;4969610;28;20042;-72
2021/05/19 04:47:37;;;;;;;19.55;16.27;;;8.00;99.90;;;;;;4969154;28;20049;-72
2021/05/19 04:50:07;;;;;;;19.15;16.85;;;8.10;99.90;;;;;;4967276;28;20070;-72
2021/05/19 04:52:33;;;;;;;17.60;15.68;;;8.10;99.90;;;;;;4965521;28;20049;-72
2021/05/19 04:55:01;;;;;;;18.25;15.75;;;8.30;99.90;;;;;;4966538;28;20027;-72
2021/05/19 04:57:27;;;;;;;18.20;15.80;;;8.30;99.90;;;;;;4966272;28;20591;-72
2021/05/19 04:59:55;;;;;;;19.90;16.20;;;8.60;99.90;;;;;;4968663;28;20041;-72
2021/05/19 05:02:21;;;;;;;17.08;14.60;;;8.80;99.90;;;;;;4968166;28;20069;-72
2021/05/19 05:04:47;;;;;;;19.60;15.07;;;8.90;99.90;;;;;;4966425;28;20138;-72
2021/05/19 05:07:13;;;;;;;19.60;14.45;;;8.90;99.90;;;;;;4967499;28;20039;-72
2021/05/19 05:09:38;;;;;;;19.02;14.65;;;9.00;99.90;;;;;;4969578;28;20569;-72
2021/05/19 05:12:04;;;;;;;16.70;14.90;;;9.10;99.90;;;;;;4970728;28;20033;-72
2021/05/19 05:14:30;;;;;;;16.95;14.27;;;9.30;99.90;;;;;;4970411;28;20245;-72
2021/05/19 05:16:56;;;;;;;17.85;13.70;;;9.40;99.90;;;;;;4968312;28;20030;-72
2021/05/19 05:19:22;;;;;;;18.25;12.77;;;9.50;99.90;;;;;;4968240;28;20542;-73
2021/05/19 05:21:47;;;;;;;14.50;12.52;;;9.50;99.90;;;;;;4970336;28;20480;-70
2021/05/19 05:24:13;;;;;;;19.02;13.18;;;9.70;99.90;;;;;;4968067;28;20521;-70
2021/05/19 05:26:39;;;;;;;15.13;11.95;;;9.80;99.90;;;;;;4968678;28;20030;-73
2021/05/19 05:29:05;;;;;;;13.40;11.85;;;9.90;99.90;;;;;;4969719;28;20507;-73
2021/05/19 05:31:31;;;;;;;14.32;9.90;;;10.00;99.90;;;;;;4970647;28;20060;-70
2021/05/19 05:33:57;;;;;;;11.27;9.52;;;10.10;99.90;;;;;;4970123;28;20034;-70
2021/05/19 05:36:22;;;;;;;11.13;9.40;;;10.10;99.90;;;;;;4969585;28;20118;-70
2021/05/19 05:38:48;;;;;;;14.27;10.88;;;10.10;99.90;;;;;;4968821;28;20117;-71
2021/05/19 05:41:14;;;;;;;12.00;9.18;;;10.10;99.90;;;;;;4969509;28;20049;-71
2021/05/19 05:43:40;;;;;;;12.73;9.75;;;10.20;99.90;;;;;;4969405;28;20034;-71
2021/05/19 05:46:05;;;;;;;13.45;9.00;;;10.30;99.90;;;;;;4969714;28;20031;-71
2021/05/19 05:48:31;;;;;;;10.63;7.95;;;10.60;99.90;;;;;;4973537;28;20026;-71
2021/05/19 05:50:59;;;;;;;11.43;8.60;;;10.70;99.90;;;;;;5000905;28;20444;-71
2021/05/19 05:53:25;;;;;;;11.07;8.70;;;10.80;99.90;;;;;;4967795;28;20025;-73
2021/05/19 05:55:51;;;;;;;11.93;8.68;;;10.90;99.90;;;;;;4967650;28;20042;-71
2021/05/19 05:58:17;;;;;;;11.98;8.95;;;11.00;99.90;;;;;;4968562;28;20084;-71
2021/05/19 06:00:43;;;;;;;12.43;9.07;;;11.20;99.90;;;;;;4967885;28;20045;-71
2021/05/19 06:03:09;;;;;;;11.68;8.35;;;11.40;99.90;;;;;;4969662;28;20026;-71
2021/05/19 06:05:35;;;;;;;10.98;8.18;;;11.60;99.90;;;;;;4967013;28;20045;-71
2021/05/19 06:08:03;;;;;;;11.27;9.05;;;11.80;99.90;;;;;;4969565;28;20031;-71
2021/05/19 06:10:29;;;;;;;10.07;7.53;;;12.00;99.90;;;;;;4969075;28;20046;-71
2021/05/19 06:12:56;;;;;;;10.32;7.78;;;12.30;99.90;;;;;;4968348;28;20389;-71
2021/05/19 06:15:21;;;;;;;10.25;7.18;;;12.60;99.90;;;;;;4967910;28;20372;-71
2021/05/19 06:17:47;;;;;;;9.80;7.03;;;12.80;99.90;;;;;;4966346;28;20490;-71
2021/05/19 06:20:14;;;;;;;7.95;5.85;;;12.70;99.90;;;;;;4967500;28;20039;-71
2021/05/19 06:22:40;;;;;;;7.18;5.32;;;12.60;99.90;;;;;;4967622;28;20038;-71
2021/05/19 06:25:07;;;;;;;6.53;5.40;;;12.40;99.90;;;;;;4968416;28;20042;-71
2021/05/19 06:27:33;;;;;;;6.97;5.65;;;12.50;99.90;;;;;;4968814;28;20295;-71
2021/05/19 06:29:59;;;;;;;8.00;5.88;;;12.50;99.90;;;;;;4968923;28;20176;-71
2021/05/19 06:32:25;;;;;;;5.65;4.97;;;12.50;99.90;;;;;;4968189;28;20034;-71
2021/05/19 06:34:50;;;;;;;6.80;5.30;;;12.30;99.90;;;;;;4967551;28;20023;-71
2021/05/19 06:37:16;;;;;;;7.40;5.70;;;12.20;99.90;;;;;;4967971;28;20046;-71
2021/05/19 06:39:42;;;;;;;8.73;6.22;;;12.10;99.90;;;;;;4967318;28;20552;-71
2021/05/19 06:42:08;;;;;;;9.60;6.03;;;12.00;99.90;;;;;;4965914;28;20084;-71
2021/05/19 06:44:34;;;;;;;7.65;6.35;;;12.00;99.90;;;;;;4966604;28;20030;-71
2021/05/19 06:47:00;;;;;;;9.68;5.93;;;12.10;99.90;;;;;;4968798;28;20120;-71
2021/05/19 06:49:26;;;;;;;9.23;6.00;;;12.10;99.90;;;;;;4964407;28;20571;-70
2021/05/19 06:51:52;;;;;;;6.95;5.00;;;12.10;99.90;;;;;;4966826;28;20556;-71
2021/05/19 06:54:18;;;;;;;7.28;4.72;;;12.10;99.90;;;;;;4968146;28;20137;-71
2021/05/19 06:56:45;;;;;;;6.90;5.97;;;12.10;99.90;;;;;;4968041;28;20519;-70
2021/05/19 06:59:16;;;;;;;8.85;7.35;;;12.20;99.90;;;;;;4969091;28;20078;-71
2021/05/19 07:01:42;;;;;;;8.13;6.45;;;12.20;99.90;;;;;;4967917;28;20061;-71
2021/05/19 07:04:08;;;;;;;9.18;7.20;;;12.30;99.90;;;;;;4968602;28;20371;-71
2021/05/19 07:06:34;;;;;;;7.95;6.45;;;12.50;99.90;;;;;;4965754;28;20035;-71
2021/05/19 07:09:00;;;;;;;9.02;7.50;;;12.50;99.90;;;;;;4968138;28;20664;-70
2021/05/19 07:11:26;;;;;;;8.65;6.32;;;12.50;99.90;;;;;;4966395;28;20431;-71
2021/05/19 07:13:54;;;;;;;8.30;6.43;;;12.50;99.90;;;;;;4967893;28;20040;-71
2021/05/19 07:16:23;;;;;;;10.40;7.07;;;12.30;99.90;;;;;;4967370;28;20034;-70
2021/05/19 07:18:50;;;;;;;9.30;6.07;;;12.30;99.90;;;;;;4967559;28;20467;-71
2021/05/19 07:21:16;;;;;;;8.90;6.00;;;12.30;99.90;;;;;;4967006;28;20448;-71
2021/05/19 07:23:42;;;;;;;7.85;4.88;;;12.40;99.90;;;;;;4968236;28;20047;-70
2021/05/19 07:26:08;;;;;;;4.95;4.30;;;12.30;99.90;;;;;;4966224;28;20681;-70
2021/05/19 07:28:34;;;;;;;5.60;5.03;;;12.30;99.90;;;;;;4965300;28;20760;-70
2021/05/19 07:30:59;;;;;;;7.05;4.68;;;12.40;99.90;;;;;;4967084;28;20057;-71
2021/05/19 07:33:25;;;;;;;6.82;4.30;;;12.40;99.90;;;;;;4965128;28;20027;-70
2021/05/19 07:35:51;;;;;;;9.13;3.72;;;12.60;99.90;;;;;;4966243;28;20081;-70
2021/05/19 07:38:17;;;;;;;4.80;4.00;;;12.80;99.90;;;;;;4967262;28;20026;-70
2021/05/19 07:40:43;;;;;;;6.25;4.13;;;12.70;99.90;;;;;;4965639;28;20050;-71
2021/05/19 07:43:09;;;;;;;4.90;3.45;;;12.70;99.90;;;;;;4967713;28;20572;-71
2021/05/19 07:45:35;;;;;;;4.93;4.20;;;12.80;99.90;;;;;;4965976;28;20043;-71
2021/05/19 07:48:02;;;;;;;6.32;4.30;;;12.80;99.90;;;;;;4966964;28;20048;-72
2021/05/19 07:50:28;;;;;;;6.55;4.13;;;13.00;99.90;;;;;;4967747;28;20400;-71
2021/05/19 07:52:55;;;;;;;4.68;4.15;;;13.40;99.90;;;;;;4966270;28;20398;-71
2021/05/19 07:58:33;;;;;;;4.78;3.95;;;14.30;99.90;;;;;;4966974;28;20058;-71
2021/05/19 08:03:32;;;;;;;5.38;2.90;;;14.60;99.90;;;;;;4967245;28;20623;-71
2021/05/19 08:05:58;;;;;;;3.85;2.97;;;14.20;99.90;;;;;;4967321;28;20039;-71
2021/05/19 08:08:25;;;;;;;4.47;2.70;;;13.90;99.90;;;;;;4966259;28;20105;-70
2021/05/19 08:10:51;;;;;;;4.15;3.22;;;13.60;99.90;;;;;;4965946;28;20145;-71
2021/05/19 08:13:17;;;;;;;4.78;3.72;;;13.30;99.90;;;;;;4966379;28;20136;-71
2021/05/19 08:15:43;;;;;;;5.07;3.22;;;13.10;99.90;;;;;;4967073;28;20086;-71
2021/05/19 08:18:10;;;;;;;3.28;2.78;;;12.90;99.90;;;;;;4967393;28;20599;-71
2021/05/19 08:20:36;;;;;;;7.47;2.90;;;13.00;99.90;;;;;;4968077;28;20022;-71
2021/05/19 08:23:02;;;;;;;4.90;2.67;;;13.20;99.90;;;;;;4966693;28;20031;-71
2021/05/19 08:25:28;;;;;;;4.45;2.88;;;13.20;99.90;;;;;;4967618;28;20113;-71
2021/05/19 08:27:56;;;;;;;3.22;2.80;;;13.20;99.90;;;;;;4967037;28;20137;-70
2021/05/19 08:30:22;;;;;;;5.85;3.10;;;13.00;99.90;;;;;;4966802;28;20415;-71
2021/05/19 08:32:48;;;;;;;5.32;2.80;;;12.70;99.90;;;;;;4964703;28;20034;-70
2021/05/19 08:35:14;;;;;;;7.40;3.92;;;12.50;99.90;;;;;;4967811;28;20527;-70
2021/05/19 08:37:40;;;;;;;4.13;3.17;;;12.50;99.90;;;;;;4967379;28;20030;-70
2021/05/19 08:40:08;;;;;;;7.10;3.47;;;12.30;99.90;;;;;;4968703;28;20022;-70
2021/05/19 08:42:35;;;;;;;5.28;3.42;;;12.10;99.90;;;;;;4971191;28;20045;-70
2021/05/19 08:45:01;;;;;;;9.05;3.08;;;11.90;99.90;;;;;;4969467;28;20516;-70
2021/05/19 08:47:27;;;;;;;5.05;3.20;;;11.80;99.90;;;;;;4970224;28;20478;-70
2021/05/19 08:49:53;;;;;;;6.30;3.03;;;11.70;99.90;;;;;;4969763;28;20046;-71
2021/05/19 08:52:20;;;;;;;4.65;2.90;;;11.80;99.90;;;;;;4968234;28;20033;-70
2021/05/19 08:54:48;;;;;;;6.30;3.10;;;11.80;99.90;;;;;;4970866;28;20033;-70
2021/05/19 08:57:14;;;;;;;3.17;2.10;;;11.80;99.90;;;;;;4967937;28;20035;-70
2021/05/19 08:59:40;;;;;;;4.22;2.70;;;11.90;99.90;;;;;;4970429;28;20394;-71
2021/05/19 09:02:11;;;;;;;7.70;2.63;;;12.00;99.90;;;;;;4970251;28;20045;-70
2021/05/19 09:04:37;;;;;;;5.65;2.55;;;12.10;99.90;;;;;;4968855;28;20109;-70
2021/05/19 09:07:04;;;;;;;5.45;2.92;;;12.50;99.90;;;;;;4970659;28;20072;-70
2021/05/19 09:09:35;;;;;;;3.17;2.13;;;13.00;99.90;;;;;;4968392;28;20411;-70
2021/05/19 09:12:14;;;;;;;4.07;1.95;;;13.60;99.90;;;;;;4969510;28;20080;-70
2021/05/19 09:14:42;;;;;;;6.47;2.73;;;13.60;99.90;;;;;;4969116;28;20430;-71
2021/05/19 09:17:23;;;;;;;7.32;3.72;;;13.40;99.90;;;;;;4969191;28;20474;-71
2021/05/19 09:19:59;;;;;;;4.07;2.83;;;13.40;99.90;;;;;;4967983;28;20491;-71
2021/05/19 09:22:28;;;;;;;4.07;2.83;;;13.20;99.90;;;;;;4970354;28;20049;-71
2021/05/19 09:24:54;;;;;;;3.30;2.35;;;13.00;99.90;;;;;;4969374;28;20459;-70
2021/05/19 09:27:20;;;;;;;3.88;2.45;;;12.80;99.90;;;;;;4969780;28;20160;-71
2021/05/19 09:29:49;;;;;;;4.68;2.85;;;12.50;99.90;;;;;;4969029;28;20434;-71
2021/05/19 09:32:16;;;;;;;5.50;2.63;;;12.60;99.90;;;;;;4969769;28;20027;-70
2021/05/19 09:34:45;;;;;;;5.15;2.75;;;13.20;99.90;;;;;;4969846;28;20038;-71
2021/05/19 09:37:11;;;;;;;2.72;2.15;;;14.20;99.90;;;;;;4970208;28;20038;-70
2021/05/19 09:39:52;;;;;;;4.00;2.10;;;15.20;99.90;;;;;;4967442;28;20034;-71
2021/05/19 09:42:21;;;;;;;4.85;2.47;;;15.80;99.90;;;;;;4968272;28;20085;-71
2021/05/19 09:44:48;;;;;;;4.33;2.97;;;15.80;99.90;;;;;;4970026;28;20061;-71
2021/05/19 09:47:34;;;;;;;3.92;2.97;;;15.30;99.90;;;;;;4968822;28;20030;-70
2021/05/19 09:50:00;;;;;;;4.10;3.00;;;14.80;99.90;;;;;;4968346;28;20120;-71
2021/05/19 09:52:25;;;;;;;4.35;2.00;;;14.20;99.90;;;;;;4969684;28;20121;-71
2021/05/19 09:54:51;;;;;;;3.75;2.55;;;13.90;99.90;;;;;;4969769;28;20446;-70
2021/05/19 09:57:18;;;;;;;2.65;2.00;;;13.60;99.90;;;;;;4969840;28;20041;-70
2021/05/19 09:59:45;;;;;;;4.00;2.28;;;13.40;99.90;;;;;;4968646;28;20490;-73
2021/05/19 10:02:12;;;;;;;2.17;1.80;;;13.50;99.90;;;;;;4969263;28;20042;-72
2021/05/19 10:04:51;;;;;;;7.90;2.28;;;14.00;99.90;;;;;;4968933;28;20072;-71
2021/05/19 10:07:19;;;;;;;1.88;1.58;;;14.00;99.90;;;;;;4968034;28;20077;-70
2021/05/19 10:09:45;;;;;;;2.72;1.63;;;14.70;99.90;;;;;;4966597;28;20053;-70
2021/05/19 10:12:13;;;;;;;2.15;1.65;;;15.20;99.90;;;;;;4969251;28;20019;-71
2021/05/19 10:14:41;;;;;;;5.70;2.07;;;15.60;99.90;;;;;;4969697;28;20030;-71
2021/05/19 10:17:09;;;;;;;2.35;1.35;;;16.00;99.90;;;;;;4966225;28;20144;-71
2021/05/19 10:19:39;;;;;;;1.90;1.30;;;16.00;99.90;;;;;;4982636;28;20498;-70
2021/05/19 10:22:08;;;;;;;1.70;1.38;;;16.10;99.90;;;;;;4968440;28;20104;-70
2021/05/19 10:25:03;;;;;;;1.00;0.90;;;16.60;99.90;;;;;;4966543;28;20042;-70
2021/05/19 10:28:02;;;;;;;2.53;1.10;;;16.90;99.90;;;;;;4968712;28;20033;-71
2021/05/19 10:30:35;;;;;;;3.00;1.20;;;17.30;99.90;;;;;;4986825;28;20129;-71
2021/05/19 10:33:01;;;;;;;2.67;0.88;;;17.70;99.90;;;;;;4966107;28;20165;-71
2021/05/19 10:35:36;;;;;;;3.17;1.00;;;18.20;99.90;;;;;;4968237;28;20033;-71
2021/05/19 10:38:35;;;;;;;2.40;1.20;;;18.10;99.90;;;;;;4968692;28;20041;-70
2021/05/19 10:41:05;;;;;;;2.58;1.25;;;17.20;99.90;;;;;;4965826;28;20132;-71
2021/05/19 10:43:51;;;;;;;3.05;1.85;;;16.70;99.90;;;;;;4968485;28;20046;-71
2021/05/19 10:46:57;;;;;;;3.25;1.17;;;16.70;99.90;;;;;;4966713;28;20146;-71
2021/05/19 10:49:44;;;;;;;2.28;1.42;;;17.00;99.90;;;;;;4966081;28;20448;-71
2021/05/19 10:58:01;;;;;;;3.05;1.42;;;17.50;99.90;;;;;;4968191;28;20035;-71
2021/05/19 11:00:31;;;;;;;1.67;1.50;;;17.50;99.90;;;;;;4967786;28;20880;-71
2021/05/19 11:03:04;;;;;;;;;;;17.50;99.90;;;;;;4967641;28;20113;-71
2021/05/19 11:05:35;;;;;;;1.35;1.25;;;17.60;99.90;;;;;;4967014;28;19920;-71
2021/05/19 11:08:07;;;;;;;2.65;1.60;;;17.40;99.90;;;;;;4964467;28;20240;-71
2021/05/19 11:10:49;;;;;;;3.03;1.70;;;17.10;99.90;;;;;;4967590;28;20638;-71
2021/05/19 11:13:17;;;;;;;2.22;2.00;;;17.00;99.90;;;;;;4967710;28;20026;-71
2021/05/19 11:16:06;;;;;;;3.33;2.15;;;17.30;99.90;;;;;;4966568;28;20035;-71
2021/05/19 11:21:04;;;;;;;1.92;1.75;;;17.70;99.90;;;;;;4968117;28;20132;-71
2021/05/19 11:23:31;;;;;;;3.17;2.00;;;18.00;99.90;;;;;;4965583;28;20050;-71
2021/05/19 11:26:12;;;;;;;3.00;1.83;;;18.20;99.90;;;;;;4967187;28;20335;-71
2021/05/19 11:28:39;;;;;;;2.42;2.10;;;17.90;99.90;;;;;;4964851;28;20348;-71
2021/05/19 11:31:13;;;;;;;2.50;2.20;;;17.50;99.90;;;;;;4968169;28;20121;-71
2021/05/19 11:34:00;;;;;;;2.83;2.10;;;17.50;99.90;;;;;;4968098;28;20678;-71
2021/05/19 11:36:32;;;;;;;3.70;1.90;;;17.80;99.90;;;;;;4967662;28;20110;-71
2021/05/19 11:39:00;;;;;;;2.53;1.70;;;18.30;99.90;;;;;;4967193;28;20110;-72
2021/05/19 11:41:26;;;;;;;2.30;1.90;;;18.40;99.90;;;;;;4967834;28;20034;-71
2021/05/19 11:43:52;;;;;;;2.47;1.70;;;18.80;99.90;;;;;;4966224;28;20035;-72
2021/05/19 11:46:18;;;;;;;3.65;1.20;;;18.50;99.90;;;;;;4966774;28;20030;-71
2021/05/19 11:48:49;;;;;;;1.58;1.30;;;18.40;99.90;;;;;;4967322;28;20399;-71
2021/05/19 11:51:21;;;;;;;1.60;1.40;;;18.20;99.90;;;;;;4967554;28;20031;-71
2021/05/19 11:54:02;;;;;;;1.52;1.42;;;18.00;99.90;;;;;;4967762;28;20034;-71
2021/05/19 11:56:49;;;;;;;2.13;1.35;;;18.10;99.90;;;;;;4967525;28;20109;-71
2021/05/19 11:59:38;;;;;;;1.98;1.33;;;18.40;99.90;;;;;;4967326;28;20542;-71
2021/05/19 12:02:09;;;;;;;2.47;1.70;;;18.70;99.90;;;;;;4965458;28;20487;-71
2021/05/19 12:04:41;;;;;;;5.13;1.48;;;18.50;99.90;;;;;;4966416;28;20030;-71
2021/05/19 12:07:08;;;;;;;8.20;1.60;;;18.20;99.90;;;;;;4967233;28;20042;-71
2021/05/19 12:09:42;;;;;;;2.67;1.48;;;18.30;99.90;;;;;;4966144;28;20037;-71
2021/05/19 12:12:14;;;;;;;5.32;1.98;;;18.50;99.90;;;;;;4966116;28;20462;-71
2021/05/19 12:14:51;;;;;;;2.85;2.00;;;18.60;99.90;;;;;;4968730;28;20037;-71
2021/05/19 12:17:21;;;;;;;8.02;2.30;;;18.50;99.90;;;;;;4971319;28;20019;-71
2021/05/19 12:19:47;;;;;;;2.70;1.67;;;18.40;99.90;;;;;;4971733;28;20030;-71
2021/05/19 12:22:19;;;;;;;2.47;1.60;;;18.20;99.90;;;;;;4970593;28;20504;-71
2021/05/19 12:24:45;;;;;;;2.83;2.05;;;18.50;99.90;;;;;;4970796;28;20471;-71
2021/05/19 12:27:20;;;;;;;2.40;1.73;;;18.60;99.90;;;;;;4971433;28;20030;-71
2021/05/19 12:29:51;;;;;;;4.28;1.70;;;18.70;99.90;;;;;;4969654;28;20521;-71
2021/05/19 12:32:21;;;;;;;1.40;1.30;;;18.50;99.90;;;;;;4968472;28;20029;-72
2021/05/19 12:35:02;;;;;;;1.67;1.58;;;18.30;99.90;;;;;;4969360;28;20031;-71
2021/05/19 12:37:44;;;;;;;4.25;1.45;;;18.00;99.90;;;;;;4970477;28;20572;-71
2021/05/19 12:40:18;;;;;;;2.58;1.70;;;17.50;99.90;;;;;;4971223;28;20027;-72
2021/05/19 12:42:56;;;;;;;3.03;1.90;;;17.50;99.90;;;;;;4971196;28;20053;-72
2021/05/19 12:45:30;;;;;;;2.60;1.70;;;17.80;99.90;;;;;;4970332;28;20486;-69
2021/05/19 12:48:17;;;;;;;3.63;1.70;;;18.20;99.90;;;;;;4969839;28;20039;-73
2021/05/19 12:51:00;;;;;;;2.22;1.88;;;17.50;99.90;;;;;;4970436;28;20054;-71
2021/05/19 12:53:35;;;;;;;2.55;1.80;;;17.40;99.90;;;;;;4970459;28;20101;-72
2021/05/19 12:56:06;;;;;;;1.98;1.60;;;17.30;99.90;;;;;;4970556;28;20850;-73
2021/05/19 12:58:51;;;;;;;3.88;1.90;;;17.30;99.90;;;;;;4969993;28;20483;-72
2021/05/19 13:01:18;;;;;;;1.92;1.58;;;16.90;99.90;;;;;;4970263;28;20678;-72
2021/05/19 13:03:45;;;;;;;4.63;2.08;;;16.80;99.90;;;;;;4975968;28;20038;-72